sensor_id;sensor_type;location;lat;lon;timestamp;P1;durP1;ratioP1;P2;durP2;ratioP2
11422;SDS011;5768;51.476;7.210;2022-08-21T00:04:59;7.50;;;3.83;;
11422;SDS011;5768;51.476;7.210;2022-08-21T00:10:03;7.20;;;4.10;;
11422;SDS011;5768;51.476;7.210;2022-08-21T00:15:08;8.05;;;4.43;;
11422;SDS011;5768;51.476;7.210;2022-08-21T00:20:12;8.60;;;4.25;;
11422;SDS011;5768;51.476;7.210;2022-08-21T00:25:19;8.43;;;4.53;;
11422;SDS011;5768;51.476;7.210;2022-08-21T00:30:22;6.68;;;4.47;;
11422;SDS011;5768;51.476;7.210;2022-08-21T00:35:27;8.82;;;4.70;;
11422;SDS011;5768;51.476;7.210;2022-08-21T00:40:38;8.70;;;4.72;;
11422;SDS011;5768;51.476;7.210;2022-08-21T00:45:48;8.43;;;4.90;;
11422;SDS011;5768;51.476;7.210;2022-08-21T00:50:53;13.18;;;5.10;;
11422;SDS011;5768;51.476;7.210;2022-08-21T00:56:03;9.25;;;5.15;;
11422;SDS011;5768;51.476;7.210;2022-08-21T01:01:08;9.70;;;5.03;;
11422;SDS011;5768;51.476;7.210;2022-08-21T01:06:10;9.02;;;4.78;;
11422;SDS011;5768;51.476;7.210;2022-08-21T01:11:14;7.65;;;4.63;;
11422;SDS011;5768;51.476;7.210;2022-08-21T01:16:18;8.07;;;4.40;;
11422;SDS011;5768;51.476;7.210;2022-08-21T01:21:25;7.20;;;4.78;;
11422;SDS011;5768;51.476;7.210;2022-08-21T01:26:29;9.82;;;5.05;;
11422;SDS011;5768;51.476;7.210;2022-08-21T01:31:34;9.40;;;4.70;;
11422;SDS011;5768;51.476;7.210;2022-08-21T01:36:39;8.10;;;4.60;;
11422;SDS011;5768;51.476;7.210;2022-08-21T01:41:44;9.52;;;5.15;;
11422;SDS011;5768;51.476;7.210;2022-08-21T01:46:49;9.35;;;5.03;;
11422;SDS011;5768;51.476;7.210;2022-08-21T01:51:56;7.30;;;5.18;;
11422;SDS011;5768;51.476;7.210;2022-08-21T01:57:00;7.43;;;5.13;;
11422;SDS011;5768;51.476;7.210;2022-08-21T02:02:03;8.80;;;5.35;;
11422;SDS011;5768;51.476;7.210;2022-08-21T02:07:07;9.05;;;5.93;;
11422;SDS011;5768;51.476;7.210;2022-08-21T02:12:10;8.75;;;5.85;;
11422;SDS011;5768;51.476;7.210;2022-08-21T02:17:13;9.05;;;6.47;;
11422;SDS011;5768;51.476;7.210;2022-08-21T02:22:17;9.90;;;6.75;;
11422;SDS011;5768;51.476;7.210;2022-08-21T02:27:19;9.88;;;6.68;;
11422;SDS011;5768;51.476;7.210;2022-08-21T02:32:22;8.35;;;6.30;;
11422;SDS011;5768;51.476;7.210;2022-08-21T02:37:27;9.52;;;6.68;;
11422;SDS011;5768;51.476;7.210;2022-08-21T02:42:30;10.27;;;7.13;;
11422;SDS011;5768;51.476;7.210;2022-08-21T02:47:32;9.30;;;7.28;;
11422;SDS011;5768;51.476;7.210;2022-08-21T02:52:36;10.50;;;6.72;;
11422;SDS011;5768;51.476;7.210;2022-08-21T02:57:38;9.60;;;6.25;;
11422;SDS011;5768;51.476;7.210;2022-08-21T03:02:41;8.95;;;6.63;;
11422;SDS011;5768;51.476;7.210;2022-08-21T03:07:47;11.15;;;6.05;;
11422;SDS011;5768;51.476;7.210;2022-08-21T03:12:52;9.93;;;6.18;;
11422;SDS011;5768;51.476;7.210;2022-08-21T03:17:55;8.88;;;6.30;;
11422;SDS011;5768;51.476;7.210;2022-08-21T03:23:00;10.55;;;6.43;;
11422;SDS011;5768;51.476;7.210;2022-08-21T03:28:04;7.63;;;6.10;;
11422;SDS011;5768;51.476;7.210;2022-08-21T03:33:09;8.48;;;6.18;;
11422;SDS011;5768;51.476;7.210;2022-08-21T03:38:14;8.45;;;6.35;;
11422;SDS011;5768;51.476;7.210;2022-08-21T03:43:16;9.80;;;6.20;;
11422;SDS011;5768;51.476;7.210;2022-08-21T03:48:18;10.32;;;6.45;;
11422;SDS011;5768;51.476;7.210;2022-08-21T03:53:23;12.25;;;6.85;;
11422;SDS011;5768;51.476;7.210;2022-08-21T03:58:26;7.60;;;6.60;;
11422;SDS011;5768;51.476;7.210;2022-08-21T04:03:30;9.50;;;6.93;;
11422;SDS011;5768;51.476;7.210;2022-08-21T04:08:33;9.80;;;6.50;;
11422;SDS011;5768;51.476;7.210;2022-08-21T04:13:36;10.73;;;6.85;;
11422;SDS011;5768;51.476;7.210;2022-08-21T04:18:41;9.93;;;7.28;;
11422;SDS011;5768;51.476;7.210;2022-08-21T04:23:45;11.18;;;7.28;;
11422;SDS011;5768;51.476;7.210;2022-08-21T04:28:47;8.80;;;7.28;;
11422;SDS011;5768;51.476;7.210;2022-08-21T04:33:49;9.43;;;7.10;;
11422;SDS011;5768;51.476;7.210;2022-08-21T04:38:53;9.60;;;7.00;;
11422;SDS011;5768;51.476;7.210;2022-08-21T04:43:55;11.20;;;7.10;;
11422;SDS011;5768;51.476;7.210;2022-08-21T04:48:58;10.23;;;7.25;;
11422;SDS011;5768;51.476;7.210;2022-08-21T04:54:02;8.10;;;6.63;;
11422;SDS011;5768;51.476;7.210;2022-08-21T04:59:13;11.77;;;6.65;;
11422;SDS011;5768;51.476;7.210;2022-08-21T05:04:22;10.85;;;6.55;;
11422;SDS011;5768;51.476;7.210;2022-08-21T05:09:31;8.52;;;6.32;;
11422;SDS011;5768;51.476;7.210;2022-08-21T05:14:35;7.10;;;5.65;;
11422;SDS011;5768;51.476;7.210;2022-08-21T05:19:38;8.73;;;5.30;;
11422;SDS011;5768;51.476;7.210;2022-08-21T05:24:42;9.27;;;5.70;;
11422;SDS011;5768;51.476;7.210;2022-08-21T05:29:44;8.48;;;6.10;;
11422;SDS011;5768;51.476;7.210;2022-08-21T05:34:46;6.53;;;5.78;;
11422;SDS011;5768;51.476;7.210;2022-08-21T05:40:00;9.45;;;5.82;;
11422;SDS011;5768;51.476;7.210;2022-08-21T05:45:06;10.15;;;6.32;;
11422;SDS011;5768;51.476;7.210;2022-08-21T05:50:09;8.80;;;6.72;;
11422;SDS011;5768;51.476;7.210;2022-08-21T05:55:14;10.10;;;7.05;;
11422;SDS011;5768;51.476;7.210;2022-08-21T06:00:16;7.68;;;6.40;;
11422;SDS011;5768;51.476;7.210;2022-08-21T06:05:18;10.27;;;6.55;;
11422;SDS011;5768;51.476;7.210;2022-08-21T06:10:22;8.80;;;6.85;;
11422;SDS011;5768;51.476;7.210;2022-08-21T06:15:25;11.27;;;7.35;;
11422;SDS011;5768;51.476;7.210;2022-08-21T06:20:27;13.00;;;7.97;;
11422;SDS011;5768;51.476;7.210;2022-08-21T06:25:31;16.67;;;13.65;;
11422;SDS011;5768;51.476;7.210;2022-08-21T06:30:34;13.27;;;8.43;;
11422;SDS011;5768;51.476;7.210;2022-08-21T06:35:38;12.48;;;8.90;;
11422;SDS011;5768;51.476;7.210;2022-08-21T06:40:42;12.07;;;7.95;;
11422;SDS011;5768;51.476;7.210;2022-08-21T06:45:46;15.15;;;8.05;;
11422;SDS011;5768;51.476;7.210;2022-08-21T06:50:48;14.57;;;9.23;;
11422;SDS011;5768;51.476;7.210;2022-08-21T06:55:52;14.18;;;8.35;;
11422;SDS011;5768;51.476;7.210;2022-08-21T07:00:58;15.20;;;8.38;;
11422;SDS011;5768;51.476;7.210;2022-08-21T07:06:00;13.70;;;8.13;;
11422;SDS011;5768;51.476;7.210;2022-08-21T07:11:07;11.57;;;7.78;;
11422;SDS011;5768;51.476;7.210;2022-08-21T07:16:15;14.65;;;8.93;;
11422;SDS011;5768;51.476;7.210;2022-08-21T07:21:17;11.38;;;8.23;;
11422;SDS011;5768;51.476;7.210;2022-08-21T07:26:21;13.07;;;8.30;;
11422;SDS011;5768;51.476;7.210;2022-08-21T07:31:26;10.15;;;6.45;;
11422;SDS011;5768;51.476;7.210;2022-08-21T07:36:31;8.90;;;6.18;;
11422;SDS011;5768;51.476;7.210;2022-08-21T07:41:42;12.07;;;6.32;;
11422;SDS011;5768;51.476;7.210;2022-08-21T07:46:44;8.55;;;5.20;;
11422;SDS011;5768;51.476;7.210;2022-08-21T07:51:47;8.23;;;3.10;;
11422;SDS011;5768;51.476;7.210;2022-08-21T07:56:58;6.40;;;3.10;;
11422;SDS011;5768;51.476;7.210;2022-08-21T08:02:01;10.18;;;4.03;;
11422;SDS011;5768;51.476;7.210;2022-08-21T08:07:03;9.73;;;3.35;;
11422;SDS011;5768;51.476;7.210;2022-08-21T08:12:07;5.95;;;3.17;;
11422;SDS011;5768;51.476;7.210;2022-08-21T08:17:10;6.90;;;3.10;;
11422;SDS011;5768;51.476;7.210;2022-08-21T08:22:13;6.30;;;3.20;;
11422;SDS011;5768;51.476;7.210;2022-08-21T08:27:19;6.15;;;2.80;;
11422;SDS011;5768;51.476;7.210;2022-08-21T08:32:21;6.93;;;2.97;;
11422;SDS011;5768;51.476;7.210;2022-08-21T08:37:24;7.32;;;3.25;;
11422;SDS011;5768;51.476;7.210;2022-08-21T08:42:28;4.72;;;2.60;;
11422;SDS011;5768;51.476;7.210;2022-08-21T08:47:36;4.93;;;2.63;;
11422;SDS011;5768;51.476;7.210;2022-08-21T08:52:45;7.28;;;3.35;;
11422;SDS011;5768;51.476;7.210;2022-08-21T08:57:54;6.25;;;3.08;;
11422;SDS011;5768;51.476;7.210;2022-08-21T09:02:59;4.75;;;2.75;;
11422;SDS011;5768;51.476;7.210;2022-08-21T09:08:10;5.82;;;3.03;;
11422;SDS011;5768;51.476;7.210;2022-08-21T09:13:43;7.00;;;3.30;;
11422;SDS011;5768;51.476;7.210;2022-08-21T09:18:58;7.60;;;2.90;;
11422;SDS011;5768;51.476;7.210;2022-08-21T09:24:18;6.95;;;2.60;;
11422;SDS011;5768;51.476;7.210;2022-08-21T09:29:38;7.00;;;2.92;;
11422;SDS011;5768;51.476;7.210;2022-08-21T09:34:43;5.25;;;2.50;;
11422;SDS011;5768;51.476;7.210;2022-08-21T09:39:59;7.63;;;2.58;;
11422;SDS011;5768;51.476;7.210;2022-08-21T09:45:13;5.57;;;2.28;;
11422;SDS011;5768;51.476;7.210;2022-08-21T09:50:20;6.35;;;2.75;;
11422;SDS011;5768;51.476;7.210;2022-08-21T09:55:30;6.32;;;2.50;;
11422;SDS011;5768;51.476;7.210;2022-08-21T10:01:01;7.32;;;2.45;;
11422;SDS011;5768;51.476;7.210;2022-08-21T10:06:08;7.00;;;2.55;;
11422;SDS011;5768;51.476;7.210;2022-08-21T10:11:12;5.68;;;2.13;;
11422;SDS011;5768;51.476;7.210;2022-08-21T10:16:23;3.78;;;1.80;;
11422;SDS011;5768;51.476;7.210;2022-08-21T10:21:38;4.03;;;1.83;;
11422;SDS011;5768;51.476;7.210;2022-08-21T10:26:56;4.07;;;1.77;;
11422;SDS011;5768;51.476;7.210;2022-08-21T10:32:16;5.70;;;1.80;;
11422;SDS011;5768;51.476;7.210;2022-08-21T10:37:38;3.67;;;1.60;;
11422;SDS011;5768;51.476;7.210;2022-08-21T10:43:04;4.53;;;1.83;;
11422;SDS011;5768;51.476;7.210;2022-08-21T10:48:29;2.80;;;1.52;;
11422;SDS011;5768;51.476;7.210;2022-08-21T10:53:55;3.30;;;2.30;;
11422;SDS011;5768;51.476;7.210;2022-08-21T10:59:14;3.63;;;1.80;;
11422;SDS011;5768;51.476;7.210;2022-08-21T11:04:30;2.88;;;1.63;;
11422;SDS011;5768;51.476;7.210;2022-08-21T11:09:42;3.92;;;1.52;;
11422;SDS011;5768;51.476;7.210;2022-08-21T11:14:51;3.63;;;1.70;;
11422;SDS011;5768;51.476;7.210;2022-08-21T11:20:07;3.53;;;1.45;;
11422;SDS011;5768;51.476;7.210;2022-08-21T11:25:21;4.00;;;1.65;;
11422;SDS011;5768;51.476;7.210;2022-08-21T11:30:33;1.65;;;1.38;;
11422;SDS011;5768;51.476;7.210;2022-08-21T11:35:56;3.03;;;1.50;;
11422;SDS011;5768;51.476;7.210;2022-08-21T11:41:11;4.55;;;1.67;;
11422;SDS011;5768;51.476;7.210;2022-08-21T11:46:28;2.78;;;1.75;;
11422;SDS011;5768;51.476;7.210;2022-08-21T11:51:39;2.35;;;1.58;;
11422;SDS011;5768;51.476;7.210;2022-08-21T11:56:50;4.35;;;1.73;;
11422;SDS011;5768;51.476;7.210;2022-08-21T12:01:58;4.07;;;1.60;;
11422;SDS011;5768;51.476;7.210;2022-08-21T12:07:11;2.03;;;1.10;;
11422;SDS011;5768;51.476;7.210;2022-08-21T12:12:23;3.28;;;1.33;;
11422;SDS011;5768;51.476;7.210;2022-08-21T12:17:34;3.50;;;1.38;;
11422;SDS011;5768;51.476;7.210;2022-08-21T12:22:41;3.25;;;1.63;;
11422;SDS011;5768;51.476;7.210;2022-08-21T12:27:53;1.98;;;1.23;;
11422;SDS011;5768;51.476;7.210;2022-08-21T12:33:20;3.00;;;1.42;;
11422;SDS011;5768;51.476;7.210;2022-08-21T12:38:29;2.85;;;1.50;;
11422;SDS011;5768;51.476;7.210;2022-08-21T12:43:47;1.13;;;1.02;;
11422;SDS011;5768;51.476;7.210;2022-08-21T12:49:00;3.10;;;1.50;;
11422;SDS011;5768;51.476;7.210;2022-08-21T12:54:21;3.28;;;1.73;;
11422;SDS011;5768;51.476;7.210;2022-08-21T12:59:28;2.17;;;1.38;;
11422;SDS011;5768;51.476;7.210;2022-08-21T13:04:33;2.65;;;1.30;;
11422;SDS011;5768;51.476;7.210;2022-08-21T13:09:46;3.33;;;1.42;;
11422;SDS011;5768;51.476;7.210;2022-08-21T13:14:55;3.10;;;1.20;;
11422;SDS011;5768;51.476;7.210;2022-08-21T13:20:03;2.20;;;1.23;;
11422;SDS011;5768;51.476;7.210;2022-08-21T13:25:12;2.92;;;1.58;;
11422;SDS011;5768;51.476;7.210;2022-08-21T13:30:19;2.17;;;1.48;;
11422;SDS011;5768;51.476;7.210;2022-08-21T13:35:24;2.08;;;1.27;;
11422;SDS011;5768;51.476;7.210;2022-08-21T13:40:44;2.13;;;1.20;;
11422;SDS011;5768;51.476;7.210;2022-08-21T13:45:51;1.35;;;1.10;;
11422;SDS011;5768;51.476;7.210;2022-08-21T13:50:55;1.95;;;1.30;;
11422;SDS011;5768;51.476;7.210;2022-08-21T13:56:03;2.10;;;1.25;;
11422;SDS011;5768;51.476;7.210;2022-08-21T14:01:15;3.28;;;1.35;;
11422;SDS011;5768;51.476;7.210;2022-08-21T14:06:23;3.17;;;1.30;;
11422;SDS011;5768;51.476;7.210;2022-08-21T14:11:32;3.47;;;1.50;;
11422;SDS011;5768;51.476;7.210;2022-08-21T14:16:43;1.52;;;1.23;;
11422;SDS011;5768;51.476;7.210;2022-08-21T14:21:53;3.83;;;1.30;;
11422;SDS011;5768;51.476;7.210;2022-08-21T14:27:01;3.60;;;1.30;;
11422;SDS011;5768;51.476;7.210;2022-08-21T14:32:10;2.30;;;1.42;;
11422;SDS011;5768;51.476;7.210;2022-08-21T14:37:16;2.53;;;1.40;;
11422;SDS011;5768;51.476;7.210;2022-08-21T14:42:20;1.90;;;1.30;;
11422;SDS011;5768;51.476;7.210;2022-08-21T14:47:23;2.72;;;1.60;;
11422;SDS011;5768;51.476;7.210;2022-08-21T14:52:25;2.70;;;1.38;;
11422;SDS011;5768;51.476;7.210;2022-08-21T14:57:29;2.70;;;1.40;;
11422;SDS011;5768;51.476;7.210;2022-08-21T15:02:35;1.80;;;1.40;;
11422;SDS011;5768;51.476;7.210;2022-08-21T15:07:37;4.10;;;3.60;;
11422;SDS011;5768;51.476;7.210;2022-08-21T15:12:41;2.65;;;1.50;;
11422;SDS011;5768;51.476;7.210;2022-08-21T15:17:43;2.63;;;1.55;;
11422;SDS011;5768;51.476;7.210;2022-08-21T15:22:45;1.23;;;1.13;;
11422;SDS011;5768;51.476;7.210;2022-08-21T15:27:49;3.13;;;1.60;;
11422;SDS011;5768;51.476;7.210;2022-08-21T15:32:51;4.93;;;1.48;;
11422;SDS011;5768;51.476;7.210;2022-08-21T15:37:53;2.70;;;1.20;;
11422;SDS011;5768;51.476;7.210;2022-08-21T15:42:58;2.05;;;1.10;;
11422;SDS011;5768;51.476;7.210;2022-08-21T15:48:03;2.08;;;1.15;;
11422;SDS011;5768;51.476;7.210;2022-08-21T15:53:06;2.65;;;1.70;;
11422;SDS011;5768;51.476;7.210;2022-08-21T15:58:12;4.78;;;2.10;;
11422;SDS011;5768;51.476;7.210;2022-08-21T16:03:17;3.47;;;1.38;;
11422;SDS011;5768;51.476;7.210;2022-08-21T16:08:22;4.25;;;2.60;;
11422;SDS011;5768;51.476;7.210;2022-08-21T16:13:27;3.92;;;1.55;;
11422;SDS011;5768;51.476;7.210;2022-08-21T16:18:36;3.03;;;1.80;;
11422;SDS011;5768;51.476;7.210;2022-08-21T16:23:39;2.97;;;1.30;;
11422;SDS011;5768;51.476;7.210;2022-08-21T16:28:43;2.63;;;1.60;;
11422;SDS011;5768;51.476;7.210;2022-08-21T16:33:48;2.33;;;1.33;;
11422;SDS011;5768;51.476;7.210;2022-08-21T16:38:54;5.13;;;1.70;;
11422;SDS011;5768;51.476;7.210;2022-08-21T16:44:00;4.75;;;1.60;;
11422;SDS011;5768;51.476;7.210;2022-08-21T16:49:04;3.25;;;1.80;;
11422;SDS011;5768;51.476;7.210;2022-08-21T16:54:07;3.67;;;1.88;;
11422;SDS011;5768;51.476;7.210;2022-08-21T16:59:11;3.35;;;1.83;;
11422;SDS011;5768;51.476;7.210;2022-08-21T17:04:14;3.80;;;1.45;;
11422;SDS011;5768;51.476;7.210;2022-08-21T17:09:16;4.35;;;2.75;;
11422;SDS011;5768;51.476;7.210;2022-08-21T17:14:20;3.60;;;1.75;;
11422;SDS011;5768;51.476;7.210;2022-08-21T17:19:24;2.90;;;1.48;;
11422;SDS011;5768;51.476;7.210;2022-08-21T17:24:29;3.13;;;1.48;;
11422;SDS011;5768;51.476;7.210;2022-08-21T17:29:37;2.45;;;1.50;;
11422;SDS011;5768;51.476;7.210;2022-08-21T17:34:41;2.22;;;1.38;;
11422;SDS011;5768;51.476;7.210;2022-08-21T17:39:44;4.00;;;1.80;;
11422;SDS011;5768;51.476;7.210;2022-08-21T17:44:49;4.45;;;1.67;;
11422;SDS011;5768;51.476;7.210;2022-08-21T17:49:52;3.30;;;1.48;;
11422;SDS011;5768;51.476;7.210;2022-08-21T17:54:54;2.53;;;1.65;;
11422;SDS011;5768;51.476;7.210;2022-08-21T17:59:57;2.70;;;1.38;;
11422;SDS011;5768;51.476;7.210;2022-08-21T18:05:00;2.47;;;1.40;;
11422;SDS011;5768;51.476;7.210;2022-08-21T18:10:04;4.10;;;1.70;;
11422;SDS011;5768;51.476;7.210;2022-08-21T18:15:13;2.88;;;1.50;;
11422;SDS011;5768;51.476;7.210;2022-08-21T18:20:18;3.72;;;1.77;;
11422;SDS011;5768;51.476;7.210;2022-08-21T18:25:23;3.95;;;1.70;;
11422;SDS011;5768;51.476;7.210;2022-08-21T18:30:27;3.42;;;1.70;;
11422;SDS011;5768;51.476;7.210;2022-08-21T18:35:30;4.57;;;2.40;;
11422;SDS011;5768;51.476;7.210;2022-08-21T18:40:33;3.30;;;1.58;;
11422;SDS011;5768;51.476;7.210;2022-08-21T18:45:41;5.03;;;2.00;;
11422;SDS011;5768;51.476;7.210;2022-08-21T18:50:44;4.68;;;2.33;;
11422;SDS011;5768;51.476;7.210;2022-08-21T18:55:48;5.53;;;2.28;;
11422;SDS011;5768;51.476;7.210;2022-08-21T19:00:52;4.15;;;2.05;;
11422;SDS011;5768;51.476;7.210;2022-08-21T19:05:54;3.50;;;1.98;;
11422;SDS011;5768;51.476;7.210;2022-08-21T19:10:57;4.13;;;2.00;;
11422;SDS011;5768;51.476;7.210;2022-08-21T19:16:03;2.55;;;1.90;;
11422;SDS011;5768;51.476;7.210;2022-08-21T19:21:06;4.07;;;2.15;;
11422;SDS011;5768;51.476;7.210;2022-08-21T19:26:08;3.80;;;2.03;;
11422;SDS011;5768;51.476;7.210;2022-08-21T19:31:22;2.97;;;2.00;;
11422;SDS011;5768;51.476;7.210;2022-08-21T19:36:31;4.53;;;2.17;;
11422;SDS011;5768;51.476;7.210;2022-08-21T19:41:35;4.45;;;1.85;;
11422;SDS011;5768;51.476;7.210;2022-08-21T19:46:52;4.15;;;1.92;;
11422;SDS011;5768;51.476;7.210;2022-08-21T19:52:00;5.03;;;2.05;;
11422;SDS011;5768;51.476;7.210;2022-08-21T19:57:04;4.10;;;2.10;;
11422;SDS011;5768;51.476;7.210;2022-08-21T20:02:09;2.78;;;1.90;;
11422;SDS011;5768;51.476;7.210;2022-08-21T20:07:22;5.97;;;2.30;;
11422;SDS011;5768;51.476;7.210;2022-08-21T20:12:24;5.68;;;2.60;;
11422;SDS011;5768;51.476;7.210;2022-08-21T20:17:28;2.75;;;2.05;;
11422;SDS011;5768;51.476;7.210;2022-08-21T20:22:31;3.60;;;2.00;;
11422;SDS011;5768;51.476;7.210;2022-08-21T20:27:33;5.15;;;2.70;;
11422;SDS011;5768;51.476;7.210;2022-08-21T20:32:37;6.03;;;2.55;;
11422;SDS011;5768;51.476;7.210;2022-08-21T20:37:43;7.93;;;2.97;;
11422;SDS011;5768;51.476;7.210;2022-08-21T20:42:46;5.57;;;2.45;;
11422;SDS011;5768;51.476;7.210;2022-08-21T20:47:55;5.60;;;2.42;;
11422;SDS011;5768;51.476;7.210;2022-08-21T20:53:05;5.88;;;2.88;;
11422;SDS011;5768;51.476;7.210;2022-08-21T20:58:17;3.75;;;2.45;;
11422;SDS011;5768;51.476;7.210;2022-08-21T21:03:33;4.88;;;2.65;;
11422;SDS011;5768;51.476;7.210;2022-08-21T21:08:42;4.07;;;2.53;;
11422;SDS011;5768;51.476;7.210;2022-08-21T21:13:50;4.25;;;2.60;;
11422;SDS011;5768;51.476;7.210;2022-08-21T21:18:59;8.02;;;3.00;;
11422;SDS011;5768;51.476;7.210;2022-08-21T21:24:06;5.20;;;2.70;;
11422;SDS011;5768;51.476;7.210;2022-08-21T21:29:17;7.82;;;3.13;;
11422;SDS011;5768;51.476;7.210;2022-08-21T21:34:26;5.70;;;2.78;;
11422;SDS011;5768;51.476;7.210;2022-08-21T21:39:39;5.70;;;2.85;;
11422;SDS011;5768;51.476;7.210;2022-08-21T21:44:54;4.82;;;2.60;;
11422;SDS011;5768;51.476;7.210;2022-08-21T21:50:20;8.25;;;3.30;;
11422;SDS011;5768;51.476;7.210;2022-08-21T22:01:23;9.32;;;3.17;;
11422;SDS011;5768;51.476;7.210;2022-08-21T22:06:41;7.03;;;3.22;;
11422;SDS011;5768;51.476;7.210;2022-08-21T22:11:54;3.83;;;3.00;;
11422;SDS011;5768;51.476;7.210;2022-08-21T22:17:07;6.32;;;3.35;;
11422;SDS011;5768;51.476;7.210;2022-08-21T22:22:27;4.82;;;2.88;;
11422;SDS011;5768;51.476;7.210;2022-08-21T22:27:32;6.53;;;3.28;;
11422;SDS011;5768;51.476;7.210;2022-08-21T22:32:39;7.43;;;3.50;;
11422;SDS011;5768;51.476;7.210;2022-08-21T22:37:46;7.40;;;3.33;;
11422;SDS011;5768;51.476;7.210;2022-08-21T22:42:58;5.60;;;2.92;;
11422;SDS011;5768;51.476;7.210;2022-08-21T22:48:03;7.53;;;3.40;;
11422;SDS011;5768;51.476;7.210;2022-08-21T22:53:09;5.45;;;3.50;;
11422;SDS011;5768;51.476;7.210;2022-08-21T22:58:26;5.03;;;3.13;;
11422;SDS011;5768;51.476;7.210;2022-08-21T23:03:32;6.13;;;2.97;;
11422;SDS011;5768;51.476;7.210;2022-08-21T23:08:49;8.00;;;3.35;;
11422;SDS011;5768;51.476;7.210;2022-08-21T23:13:52;6.63;;;3.28;;
11422;SDS011;5768;51.476;7.210;2022-08-21T23:18:56;6.07;;;3.38;;
11422;SDS011;5768;51.476;7.210;2022-08-21T23:24:18;5.45;;;2.95;;
11422;SDS011;5768;51.476;7.210;2022-08-21T23:29:58;5.47;;;3.00;;
11422;SDS011;5768;51.476;7.210;2022-08-21T23:35:09;6.38;;;3.13;;
11422;SDS011;5768;51.476;7.210;2022-08-21T23:45:58;5.05;;;2.85;;
11422;SDS011;5768;51.476;7.210;2022-08-21T23:51:25;4.93;;;3.15;;
11422;SDS011;5768;51.476;7.210;2022-08-21T23:56:52;5.43;;;3.42;;
